Time;durP1;ratioP1;P1;durP2;ratioP2;P2;SDS_P1;SDS_P2;PMS_P1;PMS_P2;Temp;Humidity;BMP_temperature;BMP_pressure;BME280_temperature;BME280_humidity;BME280_pressure;Samples;Min_cycle;Max_cycle;Signal;HPM_P1;HPM_P2
2022/05/15 00:00:52;;;;;;;13.97;9.37;;;15.00;99.90;;;;;;5069306;28;20718;-41
2022/05/15 00:03:20;;;;;;;11.10;8.13;;;14.90;99.90;;;;;;5069394;28;20473;-43
2022/05/15 00:05:54;;;;;;;13.97;9.00;;;14.90;99.90;;;;;;5070157;28;20439;-43
2022/05/15 00:08:20;;;;;;;12.33;9.40;;;14.80;99.90;;;;;;5067682;28;20451;-43
2022/05/15 00:10:46;;;;;;;15.40;9.30;;;14.80;99.90;;;;;;5060949;28;20463;-42
2022/05/15 00:13:12;;;;;;;14.37;9.73;;;14.80;99.90;;;;;;5068760;28;20426;-42
2022/05/15 00:15:39;;;;;;;12.17;8.53;;;14.80;99.90;;;;;;5068634;28;20548;-42
2022/05/15 00:18:06;;;;;;;14.23;8.70;;;14.90;99.90;;;;;;5068276;28;20419;-43
2022/05/15 00:20:32;;;;;;;13.40;8.63;;;14.80;99.90;;;;;;5068560;28;20431;-43
2022/05/15 00:22:58;;;;;;;15.30;9.10;;;14.90;99.90;;;;;;5068667;28;20435;-43
2022/05/15 00:25:24;;;;;;;12.13;8.87;;;14.80;99.90;;;;;;5064542;28;20945;-42
2022/05/15 00:27:50;;;;;;;13.03;8.97;;;14.80;99.90;;;;;;5063271;28;20268;-43
2022/05/15 00:30:17;;;;;;;12.40;8.10;;;14.80;99.90;;;;;;5068450;28;20888;-43
2022/05/15 00:32:43;;;;;;;14.07;8.17;;;14.80;99.90;;;;;;5056019;28;20212;-43
2022/05/15 00:35:09;;;;;;;13.10;9.10;;;14.80;99.90;;;;;;5068658;28;20491;-43
2022/05/15 00:37:35;;;;;;;12.50;9.20;;;14.80;99.90;;;;;;5068859;28;20612;-42
2022/05/15 00:40:01;;;;;;;16.40;9.93;;;14.80;99.90;;;;;;5078977;28;20514;-43
2022/05/15 00:42:27;;;;;;;13.77;8.90;;;14.70;99.90;;;;;;5059382;28;20535;-42
2022/05/15 00:44:52;;;;;;;14.93;9.47;;;14.70;99.90;;;;;;5067412;28;20514;-43
2022/05/15 00:47:18;;;;;;;16.47;9.00;;;14.70;99.90;;;;;;5068167;28;20192;-43
2022/05/15 00:49:45;;;;;;;12.50;9.40;;;14.70;99.90;;;;;;5067592;28;20192;-42
2022/05/15 00:52:14;;;;;;;12.57;7.90;;;14.60;99.90;;;;;;5068528;28;20200;-43
2022/05/15 00:54:45;;;;;;;13.17;8.80;;;14.60;99.90;;;;;;5068536;28;20502;-43
2022/05/15 00:57:22;;;;;;;12.20;8.80;;;14.60;99.90;;;;;;5056897;28;20451;-43
2022/05/15 01:00:03;;;;;;;14.87;8.83;;;14.40;99.90;;;;;;5065817;28;20423;-43
2022/05/15 01:02:34;;;;;;;12.43;8.50;;;14.40;99.90;;;;;;5067863;28;20458;-41
2022/05/15 01:05:00;;;;;;;16.63;9.63;;;14.40;99.90;;;;;;5068122;28;20423;-42
2022/05/15 01:07:26;;;;;;;10.10;8.00;;;14.30;99.90;;;;;;5067326;28;20981;-43
2022/05/15 01:09:52;;;;;;;13.97;8.90;;;14.40;99.90;;;;;;5067835;28;20437;-42
2022/05/15 01:12:18;;;;;;;14.97;9.03;;;14.50;99.90;;;;;;5057986;28;20192;-42
2022/05/15 01:14:46;;;;;;;10.00;8.10;;;14.50;99.90;;;;;;5067311;28;20290;-43
2022/05/15 01:17:12;;;;;;;11.40;8.77;;;14.60;99.90;;;;;;5067929;28;20189;-42
2022/05/15 01:19:40;;;;;;;12.40;8.20;;;14.60;99.90;;;;;;5067761;28;20437;-43
2022/05/15 01:22:08;;;;;;;12.33;9.53;;;14.50;99.90;;;;;;5067731;28;20956;-43
2022/05/15 01:24:35;;;;;;;12.57;8.40;;;14.40;99.90;;;;;;5068109;28;20435;-42
2022/05/15 01:27:04;;;;;;;13.60;8.70;;;14.30;99.90;;;;;;5057041;28;20519;-43
2022/05/15 01:29:33;;;;;;;12.30;9.30;;;14.30;99.90;;;;;;5065902;28;20527;-43
2022/05/15 01:32:00;;;;;;;14.50;8.33;;;14.20;99.90;;;;;;5066958;28;20514;-42
2022/05/15 01:34:27;;;;;;;14.17;9.27;;;14.10;99.90;;;;;;5066567;28;20474;-42
2022/05/15 01:36:53;;;;;;;12.37;8.77;;;14.10;99.90;;;;;;5067679;28;20423;-43
2022/05/15 01:39:19;;;;;;;11.40;8.60;;;14.00;99.90;;;;;;5076084;28;20430;-42
2022/05/15 01:41:45;;;;;;;13.20;8.90;;;13.90;99.90;;;;;;5066889;28;20440;-43
2022/05/15 01:44:11;;;;;;;15.30;9.73;;;14.00;99.90;;;;;;5067407;28;20203;-43
2022/05/15 01:46:37;;;;;;;13.97;9.33;;;14.00;99.90;;;;;;5073247;28;20498;-43
2022/05/15 01:49:06;;;;;;;12.87;9.80;;;14.00;99.90;;;;;;5055676;28;20481;-43
2022/05/15 01:51:34;;;;;;;12.60;9.40;;;13.90;99.90;;;;;;5066847;28;20484;-42
2022/05/15 01:54:01;;;;;;;13.53;10.27;;;13.90;99.90;;;;;;5067729;28;20435;-42
2022/05/15 01:56:27;;;;;;;12.23;10.13;;;14.00;99.90;;;;;;5061368;28;20800;-42
2022/05/15 01:58:54;;;;;;;14.40;10.17;;;14.10;99.90;;;;;;5067146;28;20427;-42
2022/05/15 02:01:19;;;;;;;13.20;9.03;;;14.10;99.90;;;;;;5068059;28;20447;-43
2022/05/15 02:03:45;;;;;;;12.83;8.87;;;14.10;99.90;;;;;;5067149;28;20427;-43
2022/05/15 02:06:11;;;;;;;11.40;9.30;;;13.90;99.90;;;;;;5067694;28;20586;-41
2022/05/15 02:08:37;;;;;;;15.07;10.30;;;13.80;99.90;;;;;;5066329;28;20215;-41
2022/05/15 02:11:04;;;;;;;13.07;9.30;;;13.70;99.90;;;;;;5062193;28;20197;-43
2022/05/15 02:13:30;;;;;;;12.43;9.30;;;13.60;99.90;;;;;;5057372;28;20431;-42
2022/05/15 02:15:56;;;;;;;10.30;9.30;;;13.50;99.90;;;;;;5067025;28;20519;-42
2022/05/15 02:18:22;;;;;;;11.77;9.30;;;13.50;99.90;;;;;;5067210;28;20427;-42
2022/05/15 02:20:47;;;;;;;11.60;8.77;;;13.40;99.90;;;;;;5067047;28;20185;-40
2022/05/15 02:23:13;;;;;;;10.60;9.60;;;13.30;99.90;;;;;;5065737;28;20192;-42
2022/05/15 02:25:40;;;;;;;11.70;10.50;;;13.30;99.90;;;;;;5065720;28;20652;-43
2022/05/15 02:28:07;;;;;;;11.03;9.80;;;13.20;99.90;;;;;;5057704;28;20197;-43
2022/05/15 02:30:33;;;;;;;13.23;10.20;;;13.20;99.90;;;;;;5065927;28;20439;-43
2022/05/15 02:32:58;;;;;;;11.27;10.20;;;13.20;99.90;;;;;;5067208;28;20442;-43
2022/05/15 02:35:24;;;;;;;10.43;9.43;;;13.20;99.90;;;;;;5065401;28;20221;-44
2022/05/15 02:37:49;;;;;;;10.37;9.40;;;13.20;99.90;;;;;;5067216;28;20656;-42
2022/05/15 02:40:18;;;;;;;11.30;10.10;;;13.10;99.90;;;;;;5081936;28;20192;-43
2022/05/15 02:42:44;;;;;;;10.00;9.10;;;12.90;99.90;;;;;;5062377;28;20203;-43
2022/05/15 02:45:10;;;;;;;11.30;10.17;;;12.60;99.90;;;;;;5071035;28;20798;-41
2022/05/15 02:47:36;;;;;;;14.07;10.50;;;12.50;99.90;;;;;;5071229;28;20435;-43
2022/05/15 02:52:47;;;;;;;12.27;10.80;;;12.40;99.90;;;;;;5069980;28;20439;-43
2022/05/15 02:55:13;;;;;;;11.77;10.67;;;12.30;99.90;;;;;;5070557;28;20471;-43
2022/05/15 02:57:41;;;;;;;11.70;10.50;;;12.30;99.90;;;;;;5060555;28;20463;-43
2022/05/15 03:00:09;;;;;;;12.90;10.70;;;12.40;99.90;;;;;;5069774;28;20181;-40
2022/05/15 03:02:40;;;;;;;11.50;10.40;;;12.40;99.90;;;;;;5069239;28;20426;-43
2022/05/15 03:05:07;;;;;;;12.73;11.23;;;12.50;99.90;;;;;;5070563;28;20964;-42
2022/05/15 03:07:33;;;;;;;16.20;12.00;;;12.40;99.90;;;;;;5069572;28;20446;-43
2022/05/15 03:09:59;;;;;;;11.80;10.67;;;12.50;99.90;;;;;;5069811;28;20535;-42
2022/05/15 03:12:25;;;;;;;11.67;10.57;;;12.50;99.90;;;;;;5062768;28;20526;-43
2022/05/15 03:14:51;;;;;;;11.70;10.60;;;12.60;99.90;;;;;;5069645;28;20221;-41
2022/05/15 03:17:17;;;;;;;13.37;10.10;;;12.50;99.90;;;;;;5070320;28;20189;-43
2022/05/15 03:19:43;;;;;;;12.17;10.30;;;12.50;99.90;;;;;;5069895;28;20839;-43
2022/05/15 03:22:09;;;;;;;11.10;9.90;;;12.60;99.90;;;;;;5069781;28;20607;-41
2022/05/15 03:24:35;;;;;;;12.23;10.83;;;12.70;99.90;;;;;;5070571;28;20427;-42
2022/05/15 03:27:01;;;;;;;10.87;9.97;;;12.60;99.90;;;;;;5062608;28;20438;-42
2022/05/15 03:29:28;;;;;;;11.57;10.47;;;12.60;99.90;;;;;;5067330;28;20189;-43
2022/05/15 03:31:54;;;;;;;11.33;10.13;;;12.60;99.90;;;;;;5069745;28;20196;-43
2022/05/15 03:34:20;;;;;;;13.13;11.07;;;12.50;99.90;;;;;;5069968;28;20462;-42
2022/05/15 03:36:48;;;;;;;13.10;11.80;;;12.50;99.90;;;;;;5069968;28;20944;-43
2022/05/15 03:39:15;;;;;;;11.37;10.37;;;12.50;99.90;;;;;;5077697;28;20722;-43
2022/05/15 03:41:42;;;;;;;13.67;10.63;;;12.40;99.90;;;;;;5083086;28;21007;-42
2022/05/15 03:44:08;;;;;;;12.00;9.77;;;12.40;99.90;;;;;;5063046;28;20427;-43
2022/05/15 03:46:35;;;;;;;14.23;11.00;;;12.40;99.90;;;;;;5069538;28;20492;-43
2022/05/15 03:49:00;;;;;;;10.77;9.27;;;12.30;99.90;;;;;;5069634;28;20467;-42
2022/05/15 03:51:26;;;;;;;13.27;10.07;;;12.30;99.90;;;;;;5069300;28;20470;-43
2022/05/15 03:53:53;;;;;;;16.23;10.77;;;12.40;99.90;;;;;;5068690;28;20258;-41
2022/05/15 03:56:49;;;;;;;13.20;10.57;;;12.30;99.90;;;;;;5068399;28;20475;-42
2022/05/15 03:59:07;;;;;;;12.13;10.93;;;12.40;99.90;;;;;;5063328;28;20451;-43
2022/05/15 04:01:32;;;;;;;11.67;10.43;;;12.40;99.90;;;;;;5067820;28;20999;-42
2022/05/15 04:03:59;;;;;;;10.50;9.40;;;12.30;99.90;;;;;;5069004;28;20481;-42
2022/05/15 04:06:25;;;;;;;12.33;10.53;;;12.30;99.90;;;;;;5069570;28;20193;-42
2022/05/15 04:08:51;;;;;;;11.33;10.23;;;12.30;99.90;;;;;;5067248;28;20423;-42
2022/05/15 04:11:18;;;;;;;11.30;10.30;;;12.30;99.90;;;;;;5068903;28;20439;-42
2022/05/15 04:13:44;;;;;;;13.43;10.30;;;12.30;99.90;;;;;;5060710;28;20193;-42
2022/05/15 04:16:10;;;;;;;11.47;10.27;;;12.30;99.90;;;;;;5068737;28;20474;-43
2022/05/15 04:18:36;;;;;;;16.63;10.30;;;12.30;99.90;;;;;;5069322;28;20436;-42
2022/05/15 04:21:02;;;;;;;11.67;10.17;;;12.30;99.90;;;;;;5068939;28;20427;-42
2022/05/15 04:23:29;;;;;;;14.00;10.53;;;12.30;99.90;;;;;;5069379;28;20644;-43
2022/05/15 04:25:54;;;;;;;15.20;10.50;;;12.30;99.90;;;;;;5069408;28;20432;-41
2022/05/15 04:28:20;;;;;;;13.93;10.50;;;12.30;99.90;;;;;;5056131;28;20814;-42
2022/05/15 04:30:46;;;;;;;13.13;11.30;;;12.30;99.90;;;;;;5066978;28;20195;-43
2022/05/15 04:33:11;;;;;;;11.00;9.90;;;12.30;99.90;;;;;;5069247;28;20231;-41
2022/05/15 04:35:37;;;;;;;11.67;10.40;;;12.30;99.90;;;;;;5068906;28;20220;-44
2022/05/15 04:38:03;;;;;;;11.27;9.30;;;12.30;99.90;;;;;;5069024;28;20564;-43
2022/05/15 04:40:28;;;;;;;11.13;10.03;;;12.40;99.90;;;;;;5073503;28;20193;-43
2022/05/15 04:42:54;;;;;;;10.70;9.70;;;12.40;99.90;;;;;;5068698;28;20189;-43
2022/05/15 04:45:19;;;;;;;9.27;8.37;;;12.30;99.90;;;;;;5069953;28;20897;-43
2022/05/15 04:47:46;;;;;;;10.87;9.17;;;12.40;99.90;;;;;;5068869;28;20196;-41
2022/05/15 04:50:14;;;;;;;10.17;9.17;;;12.50;99.90;;;;;;5067994;28;20553;-41
2022/05/15 04:52:40;;;;;;;13.23;9.57;;;12.60;99.90;;;;;;5068644;28;20484;-43
2022/05/15 04:55:06;;;;;;;12.70;9.53;;;12.60;99.90;;;;;;5068346;28;20455;-43
2022/05/15 04:57:33;;;;;;;10.80;9.67;;;12.70;99.90;;;;;;5061951;28;20452;-43
2022/05/15 04:59:58;;;;;;;12.00;8.50;;;12.70;99.90;;;;;;5060808;28;20531;-42
2022/05/15 05:02:24;;;;;;;9.03;8.10;;;12.70;99.90;;;;;;5068394;28;20498;-43
2022/05/15 05:04:50;;;;;;;11.73;9.60;;;12.80;99.90;;;;;;5068044;28;20201;-41
2022/05/15 05:07:15;;;;;;;11.53;9.83;;;12.90;99.90;;;;;;5066311;28;20208;-42
2022/05/15 05:09:41;;;;;;;12.07;9.60;;;13.00;99.90;;;;;;5069066;28;20200;-42
2022/05/15 05:12:07;;;;;;;10.20;9.17;;;13.10;99.90;;;;;;5058127;28;20205;-42
2022/05/15 05:14:33;;;;;;;11.33;9.37;;;13.10;99.90;;;;;;5063437;28;20586;-43
2022/05/15 05:16:58;;;;;;;12.03;10.07;;;13.10;99.90;;;;;;5067340;28;20581;-43
2022/05/15 05:19:24;;;;;;;12.03;10.03;;;13.20;99.90;;;;;;5068010;28;20185;-43
2022/05/15 05:21:50;;;;;;;10.30;9.30;;;13.20;99.90;;;;;;5067234;28;20246;-43
2022/05/15 05:24:15;;;;;;;12.20;10.50;;;13.20;99.90;;;;;;5067987;28;20560;-42
2022/05/15 05:26:41;;;;;;;11.90;10.67;;;13.10;99.90;;;;;;5046757;28;20213;-43
2022/05/15 05:29:07;;;;;;;11.10;9.80;;;13.20;99.90;;;;;;5056474;28;20191;-42
2022/05/15 05:31:33;;;;;;;9.93;8.93;;;13.20;99.90;;;;;;5067229;28;20192;-42
2022/05/15 05:33:59;;;;;;;11.50;9.77;;;13.30;99.90;;;;;;5067878;28;20780;-43
2022/05/15 05:36:25;;;;;;;9.60;7.70;;;13.30;99.90;;;;;;5066943;28;20483;-42
2022/05/15 05:38:50;;;;;;;9.53;8.63;;;13.40;99.90;;;;;;5067484;28;20234;-44
2022/05/15 05:41:16;;;;;;;10.53;9.37;;;13.50;99.90;;;;;;5067012;28;20423;-42
2022/05/15 05:43:42;;;;;;;12.70;8.90;;;13.60;99.90;;;;;;5058217;28;20373;-43
2022/05/15 05:46:07;;;;;;;9.87;7.97;;;13.70;99.90;;;;;;5067717;28;20656;-42
2022/05/15 05:48:34;;;;;;;11.27;7.50;;;13.90;99.90;;;;;;5067403;28;20192;-42
2022/05/15 05:50:59;;;;;;;10.30;7.97;;;14.10;99.90;;;;;;5067217;28;20185;-40
2022/05/15 05:53:25;;;;;;;8.70;7.77;;;14.30;99.90;;;;;;5067285;28;20804;-42
2022/05/15 05:55:51;;;;;;;9.80;8.30;;;14.60;99.90;;;;;;5067784;28;20335;-43
2022/05/15 05:58:17;;;;;;;10.10;8.20;;;14.90;99.90;;;;;;5067297;28;20191;-43
2022/05/15 06:00:43;;;;;;;9.00;7.60;;;15.00;99.90;;;;;;5064279;28;20431;-42
2022/05/15 06:05:53;;;;;;;11.40;6.77;;;15.40;99.90;;;;;;5067521;28;20190;-42
2022/05/15 06:08:19;;;;;;;11.63;7.73;;;15.80;99.90;;;;;;5066329;28;20434;-41
2022/05/15 06:10:46;;;;;;;8.10;6.87;;;16.00;99.90;;;;;;5066118;28;20262;-42
2022/05/15 06:13:12;;;;;;;12.10;7.27;;;16.10;99.90;;;;;;5061707;28;20885;-42
2022/05/15 06:15:38;;;;;;;7.50;6.80;;;16.20;99.90;;;;;;5068438;28;20467;-40
2022/05/15 06:18:05;;;;;;;7.50;6.63;;;16.30;99.90;;;;;;5067265;28;20265;-42
2022/05/15 06:20:31;;;;;;;8.87;7.17;;;16.40;99.90;;;;;;5066942;28;20424;-43
2022/05/15 06:22:57;;;;;;;7.93;6.50;;;16.60;99.90;;;;;;5067246;28;20431;-42
2022/05/15 06:25:23;;;;;;;9.03;6.40;;;16.70;99.90;;;;;;5067339;28;20449;-42
2022/05/15 06:27:49;;;;;;;9.73;7.10;;;16.80;99.90;;;;;;5064440;28;20954;-43
2022/05/15 06:30:16;;;;;;;7.50;6.70;;;17.00;99.90;;;;;;5060394;28;20520;-43
2022/05/15 06:32:42;;;;;;;9.90;6.20;;;17.20;99.90;;;;;;5067256;28;20725;-43
2022/05/15 06:35:09;;;;;;;6.90;6.20;;;17.40;99.90;;;;;;5066270;28;20501;-41
2022/05/15 06:37:35;;;;;;;13.07;6.00;;;17.50;99.90;;;;;;5067401;28;20539;-43
2022/05/15 06:40:01;;;;;;;7.57;6.13;;;17.70;99.90;;;;;;5066567;28;20492;-43
2022/05/15 06:42:28;;;;;;;11.30;7.07;;;17.80;99.90;;;;;;5066513;28;20786;-43
2022/05/15 06:44:54;;;;;;;7.13;6.07;;;17.90;99.90;;;;;;5058634;28;20546;-43
2022/05/15 06:47:20;;;;;;;8.70;6.00;;;18.00;99.90;;;;;;5061367;28;20420;-42
2022/05/15 06:49:46;;;;;;;9.60;6.47;;;18.10;99.90;;;;;;5066460;28;20941;-42
2022/05/15 06:52:12;;;;;;;7.03;6.30;;;18.20;99.90;;;;;;5067232;28;20515;-43
2022/05/15 06:54:38;;;;;;;9.70;7.37;;;18.40;99.90;;;;;;5066698;28;20213;-43
2022/05/15 06:59:49;;;;;;;8.53;7.73;;;18.60;99.90;;;;;;5058128;28;20755;-43
2022/05/15 07:02:15;;;;;;;8.00;6.50;;;18.80;99.90;;;;;;5067357;28;20424;-43
2022/05/15 07:04:41;;;;;;;7.83;6.30;;;18.90;99.90;;;;;;5066937;28;20193;-41
2022/05/15 07:07:07;;;;;;;11.07;7.30;;;19.00;99.90;;;;;;5065850;28;20438;-43
2022/05/15 07:09:33;;;;;;;10.33;7.03;;;19.20;99.90;;;;;;5066284;28;20334;-43
2022/05/15 07:11:59;;;;;;;12.53;7.50;;;19.20;99.90;;;;;;5066780;28;20526;-43
2022/05/15 07:14:25;;;;;;;9.03;6.30;;;19.20;99.90;;;;;;5055296;28;20369;-42
2022/05/15 07:16:50;;;;;;;10.53;6.23;;;19.20;99.90;;;;;;5066103;28;20185;-41
2022/05/15 07:19:16;;;;;;;8.10;6.03;;;19.30;99.90;;;;;;5067051;28;20483;-42
2022/05/15 07:21:42;;;;;;;12.70;6.80;;;19.40;99.90;;;;;;5066269;28;20629;-42
2022/05/15 07:24:08;;;;;;;9.60;6.30;;;19.40;99.90;;;;;;5066607;28;20676;-43
2022/05/15 07:26:34;;;;;;;10.93;6.27;;;19.60;99.90;;;;;;5067026;28;20295;-43
2022/05/15 07:28:59;;;;;;;10.40;6.47;;;19.70;99.10;;;;;;5060388;28;20522;-43
2022/05/15 07:31:25;;;;;;;6.90;5.70;;;19.80;99.00;;;;;;5064358;28;20558;-43
2022/05/15 07:33:51;;;;;;;9.20;5.33;;;19.90;98.80;;;;;;5070010;28;20197;-43
2022/05/15 07:36:17;;;;;;;8.53;6.30;;;19.90;99.20;;;;;;5068803;28;20236;-43
2022/05/15 07:38:43;;;;;;;9.90;6.50;;;20.00;99.20;;;;;;5071916;28;20193;-43
2022/05/15 07:41:09;;;;;;;6.70;5.97;;;20.00;98.10;;;;;;5069549;28;20438;-41
2022/05/15 07:43:35;;;;;;;7.90;5.80;;;20.10;99.30;;;;;;5063030;28;20277;-43
2022/05/15 07:46:01;;;;;;;8.60;6.57;;;20.10;99.20;;;;;;5063502;28;20523;-43
2022/05/15 07:48:27;;;;;;;8.10;5.97;;;20.10;99.90;;;;;;5065680;28;20518;-42
2022/05/15 07:50:55;;;;;;;9.47;6.00;;;20.20;99.90;;;;;;5063960;28;20459;-41
2022/05/15 07:53:21;;;;;;;10.03;5.77;;;20.10;99.90;;;;;;5068610;28;20254;-42
2022/05/15 07:55:47;;;;;;;9.87;6.97;;;20.20;98.50;;;;;;5062453;28;20467;-43
2022/05/15 07:58:12;;;;;;;7.10;6.00;;;20.20;99.00;;;;;;5063492;28;20619;-43
2022/05/15 08:00:38;;;;;;;10.17;5.50;;;20.30;99.70;;;;;;5060649;28;20559;-43
2022/05/15 08:03:10;;;;;;;7.50;6.10;;;20.30;99.90;;;;;;5055431;28;20207;-42
2022/05/15 08:08:22;;;;;;;7.37;5.90;;;20.20;98.80;;;;;;5066570;28;20431;-43
2022/05/15 08:10:49;;;;;;;8.97;6.20;;;20.10;99.40;;;;;;5068296;28;20776;-42
2022/05/15 08:13:18;;;;;;;13.30;6.73;;;20.10;99.40;;;;;;5067782;28;20983;-42
2022/05/15 08:15:45;;;;;;;8.70;6.37;;;20.10;99.90;;;;;;5067986;28;20566;-44
2022/05/15 08:24:00;;;;;;;8.50;5.50;;;20.10;99.80;;;;;;5068552;28;20431;-43
2022/05/15 08:26:27;;;;;;;9.50;5.80;;;20.20;99.40;;;;;;5068382;28;20427;-43
2022/05/15 08:28:54;;;;;;;7.57;5.03;;;20.30;98.60;;;;;;5061102;28;20447;-43
2022/05/15 08:31:21;;;;;;;6.73;4.70;;;20.30;98.50;;;;;;5067549;28;20424;-43
2022/05/15 08:33:47;;;;;;;11.27;6.27;;;20.40;97.80;;;;;;5067388;28;20480;-41
2022/05/15 08:36:13;;;;;;;10.20;5.37;;;20.40;96.80;;;;;;5068018;28;20503;-43
2022/05/15 08:38:40;;;;;;;9.30;5.70;;;20.40;97.50;;;;;;5067605;28;20422;-43
2022/05/15 08:41:27;;;;;;;9.73;5.30;;;20.50;97.90;;;;;;5067139;28;20454;-43
2022/05/15 08:44:18;;;;;;;8.83;4.97;;;20.50;97.90;;;;;;5061445;28;20493;-42
2022/05/15 08:47:02;;;;;;;5.50;4.80;;;20.50;97.20;;;;;;5065554;28;20454;-43
2022/05/15 08:49:36;;;;;;;6.60;4.60;;;20.60;96.20;;;;;;5067488;28;20422;-41
2022/05/15 08:52:06;;;;;;;7.00;5.40;;;20.50;96.00;;;;;;5066909;28;21094;-43
2022/05/15 08:54:57;;;;;;;7.47;4.20;;;20.60;96.60;;;;;;5067157;28;20450;-43
2022/05/15 08:57:33;;;;;;;7.43;4.50;;;20.60;96.70;;;;;;5042496;28;20462;-43
2022/05/15 09:00:01;;;;;;;7.07;4.97;;;20.70;96.00;;;;;;5061128;28;20804;-42
2022/05/15 09:02:26;;;;;;;7.60;4.30;;;20.80;95.70;;;;;;5067681;28;20438;-43
2022/05/15 09:04:53;;;;;;;6.37;4.40;;;20.90;94.60;;;;;;5067667;28;20950;-41
2022/05/15 09:07:30;;;;;;;7.67;4.97;;;21.00;93.80;;;;;;5066523;28;20196;-43
2022/05/15 09:10:20;;;;;;;8.77;4.40;;;21.10;94.70;;;;;;5065098;28;20431;-43
2022/05/15 09:12:53;;;;;;;7.60;4.87;;;21.10;94.20;;;;;;5067133;28;20548;-43
2022/05/15 09:15:24;;;;;;;10.20;4.10;;;21.30;94.00;;;;;;5059491;28;20482;-43
2022/05/15 09:18:02;;;;;;;6.30;3.73;;;21.40;93.70;;;;;;5067067;28;20523;-43
2022/05/15 09:20:45;;;;;;;7.93;4.33;;;21.60;93.50;;;;;;5067034;28;20435;-43
2022/05/15 09:23:32;;;;;;;6.37;3.83;;;21.70;94.00;;;;;;5075240;28;20876;-43
2022/05/15 09:26:22;;;;;;;7.30;4.07;;;21.80;92.90;;;;;;5087218;28;20445;-44
2022/05/15 09:28:54;;;;;;;7.17;3.97;;;21.90;92.00;;;;;;5081877;28;21208;-42
2022/05/15 09:31:29;;;;;;;7.40;3.93;;;22.00;91.00;;;;;;5059275;28;20793;-43
2022/05/15 09:34:03;;;;;;;8.70;4.80;;;22.10;92.50;;;;;;5065284;28;20426;-41
2022/05/15 09:36:34;;;;;;;8.33;4.20;;;22.10;92.40;;;;;;5064390;28;20829;-43
2022/05/15 09:39:27;;;;;;;9.90;4.50;;;22.30;93.00;;;;;;5065628;28;20436;-42
2022/05/15 09:45:19;;;;;;;7.40;4.03;;;22.50;89.70;;;;;;5055098;28;20416;-43
2022/05/15 09:48:00;;;;;;;7.10;4.27;;;22.60;89.30;;;;;;5062571;28;20450;-43
2022/05/15 09:50:47;;;;;;;8.73;3.93;;;22.70;90.00;;;;;;5065207;28;20423;-43
2022/05/15 09:53:34;;;;;;;6.60;3.83;;;22.70;90.70;;;;;;5071037;28;20610;-43
2022/05/15 09:56:01;;;;;;;17.77;4.00;;;22.80;88.20;;;;;;5066120;28;20473;-43
2022/05/15 09:58:40;;;;;;;6.07;3.60;;;22.70;86.80;;;;;;5061846;28;20449;-43
2022/05/15 10:01:28;;;;;;;7.97;3.87;;;22.60;84.50;;;;;;5053364;28;20793;-41
2022/05/15 10:03:57;;;;;;;7.53;3.97;;;22.70;88.50;;;;;;5066918;28;20504;-43
2022/05/15 10:06:27;;;;;;;5.37;3.90;;;22.80;90.50;;;;;;5084955;28;20414;-42
2022/05/15 10:09:23;;;;;;;7.33;4.27;;;22.90;87.40;;;;;;5066600;28;20461;-43
2022/05/15 10:12:02;;;;;;;6.77;4.13;;;23.00;88.90;;;;;;5061649;28;20500;-43
2022/05/15 10:14:43;;;;;;;8.30;3.57;;;23.00;89.20;;;;;;5059124;28;20451;-43
2022/05/15 10:17:12;;;;;;;6.40;3.93;;;23.10;85.70;;;;;;5066081;28;20419;-43
2022/05/15 10:19:51;;;;;;;8.67;3.87;;;23.20;86.10;;;;;;5069872;28;20426;-43
2022/05/15 10:22:25;;;;;;;8.10;4.43;;;23.30;86.30;;;;;;5072528;28;20430;-43
2022/05/15 10:24:52;;;;;;;6.30;4.43;;;23.30;88.50;;;;;;5067307;28;20431;-43
2022/05/15 10:27:25;;;;;;;8.97;4.03;;;23.30;89.80;;;;;;5067248;28;20439;-43
2022/05/15 10:30:07;;;;;;;7.80;4.30;;;23.40;88.30;;;;;;5060197;28;20448;-43
2022/05/15 10:32:49;;;;;;;5.57;4.10;;;23.30;90.00;;;;;;5061639;28;20450;-42
2022/05/15 10:35:17;;;;;;;5.70;3.87;;;23.40;85.00;;;;;;5063377;28;20462;-42
2022/05/15 10:37:52;;;;;;;7.37;3.90;;;23.40;82.60;;;;;;5064570;28;20791;-42
2022/05/15 10:40:29;;;;;;;6.93;4.50;;;23.40;87.50;;;;;;5062718;28;20933;-43
2022/05/15 10:42:58;;;;;;;4.37;3.73;;;23.50;85.70;;;;;;5067085;28;20435;-43
2022/05/15 10:45:39;;;;;;;6.67;3.40;;;23.60;86.60;;;;;;5056945;28;20957;-43
2022/05/15 10:48:42;;;;;;;8.50;3.60;;;23.70;84.20;;;;;;5060290;28;20921;-43
2022/05/15 10:51:28;;;;;;;8.10;4.37;;;23.70;84.70;;;;;;5060834;28;20478;-44
2022/05/15 11:00:29;;;;;;;8.37;3.17;;;24.00;84.20;;;;;;5059846;28;20530;-43
2022/05/15 11:03:14;;;;;;;4.43;3.93;;;24.10;82.80;;;;;;5036329;28;20515;-43
2022/05/15 11:06:12;;;;;;;4.83;3.57;;;24.00;82.50;;;;;;5065986;28;20442;-43
2022/05/15 11:08:47;;;;;;;7.33;3.77;;;24.00;77.50;;;;;;5065094;28;20445;-43
2022/05/15 11:11:19;;;;;;;5.30;3.40;;;24.00;78.60;;;;;;5071289;28;20422;-43
2022/05/15 11:13:52;;;;;;;6.50;3.50;;;24.00;80.20;;;;;;5071506;28;20516;-43
2022/05/15 11:16:33;;;;;;;5.63;3.93;;;24.00;78.80;;;;;;5067439;28;20510;-43
2022/05/15 11:19:11;;;;;;;5.20;3.67;;;24.10;81.60;;;;;;5068765;28;20431;-43
2022/05/15 11:22:07;;;;;;;8.07;3.80;;;24.20;82.30;;;;;;5068946;28;20429;-43
2022/05/15 11:24:44;;;;;;;5.57;3.70;;;24.20;80.10;;;;;;5067860;28;20427;-42
2022/05/15 11:27:29;;;;;;;6.63;3.93;;;24.20;80.40;;;;;;5069237;28;20423;-43
2022/05/15 11:29:59;;;;;;;8.80;3.87;;;24.20;80.30;;;;;;5060604;28;20427;-43
2022/05/15 11:32:46;;;;;;;4.73;4.20;;;24.30;82.80;;;;;;5084023;28;20447;-43
2022/05/15 11:35:18;;;;;;;6.40;4.00;;;24.40;83.70;;;;;;5067217;28;20486;-43
2022/05/15 11:37:59;;;;;;;5.47;3.60;;;24.50;84.40;;;;;;5068407;28;20529;-43
2022/05/15 11:40:42;;;;;;;4.93;3.87;;;24.60;84.00;;;;;;5086156;28;20497;-43
2022/05/15 11:43:26;;;;;;;7.50;4.17;;;24.70;83.50;;;;;;5090078;28;20426;-43
2022/05/15 11:45:54;;;;;;;6.00;3.70;;;24.80;82.40;;;;;;5067690;28;20452;-43
2022/05/15 11:48:29;;;;;;;6.00;3.70;;;24.80;81.20;;;;;;5068840;28;20483;-44
2022/05/15 11:50:57;;;;;;;6.30;3.80;;;24.80;86.20;;;;;;5083228;28;20857;-43
2022/05/15 11:53:30;;;;;;;5.03;3.50;;;24.90;81.80;;;;;;5069364;28;20925;-43
2022/05/15 11:55:56;;;;;;;7.47;4.10;;;24.90;83.40;;;;;;5070043;28;20485;-43
2022/05/15 11:58:40;;;;;;;7.67;4.00;;;25.00;85.00;;;;;;5069870;28;20419;-43
2022/05/15 12:01:08;;;;;;;5.53;4.10;;;25.10;80.60;;;;;;5057891;28;20430;-43
2022/05/15 12:03:34;;;;;;;8.67;4.50;;;25.10;84.60;;;;;;5068560;28;20931;-43
2022/05/15 12:06:33;;;;;;;6.47;4.27;;;25.10;82.40;;;;;;5069802;28;20427;-43
2022/05/15 12:09:41;;;;;;;7.13;4.00;;;25.00;81.30;;;;;;5044626;28;20436;-43
2022/05/15 12:12:27;;;;;;;7.50;4.23;;;25.00;81.40;;;;;;5045215;28;20858;-43
2022/05/15 12:15:16;;;;;;;9.57;3.80;;;25.10;81.10;;;;;;5065765;28;20478;-43
2022/05/15 12:17:42;;;;;;;5.47;3.63;;;25.10;80.20;;;;;;5058626;28;20438;-43
2022/05/15 12:20:15;;;;;;;7.30;4.10;;;25.10;77.90;;;;;;5068773;28;20423;-43
2022/05/15 12:23:02;;;;;;;5.47;3.60;;;25.10;75.80;;;;;;5069343;28;20435;-43
2022/05/15 12:25:53;;;;;;;7.00;4.53;;;25.00;74.20;;;;;;5069006;28;21004;-43
2022/05/15 12:28:51;;;;;;;4.97;3.60;;;25.00;73.40;;;;;;5069514;28;20829;-43
2022/05/15 12:31:30;;;;;;;6.43;4.10;;;25.10;78.60;;;;;;5058778;28;20444;-43
2022/05/15 12:34:07;;;;;;;8.00;4.77;;;25.10;77.00;;;;;;5082607;28;20427;-43
2022/05/15 12:36:43;;;;;;;5.80;3.87;;;25.10;76.60;;;;;;5060870;28;20462;-43
2022/05/15 12:39:33;;;;;;;5.10;3.57;;;25.20;78.00;;;;;;5075266;28;20418;-43
2022/05/15 12:42:01;;;;;;;6.37;4.40;;;25.30;79.20;;;;;;5088966;28;20495;-43
2022/05/15 12:44:38;;;;;;;4.53;3.70;;;25.30;78.40;;;;;;5088763;28;20434;-43
2022/05/15 12:47:07;;;;;;;6.50;3.43;;;25.30;76.60;;;;;;5059585;28;20431;-43
2022/05/15 12:49:32;;;;;;;4.80;3.80;;;25.40;77.30;;;;;;5066561;28;20821;-43
2022/05/15 12:52:16;;;;;;;6.23;4.80;;;25.40;76.30;;;;;;5068554;28;20426;-43
2022/05/15 12:54:46;;;;;;;8.27;4.33;;;25.40;74.10;;;;;;5068405;28;20666;-43
2022/05/15 12:57:15;;;;;;;6.30;3.83;;;25.30;76.80;;;;;;5068538;28;20475;-43
2022/05/15 12:59:44;;;;;;;5.97;3.80;;;25.40;77.10;;;;;;5068067;28;20819;-43
2022/05/15 13:02:36;;;;;;;7.07;3.60;;;25.30;78.30;;;;;;5060227;28;20470;-43
2022/05/15 13:05:18;;;;;;;5.63;3.83;;;25.40;76.40;;;;;;5058699;28;20506;-43
2022/05/15 13:07:43;;;;;;;5.53;3.83;;;25.40;72.00;;;;;;5068721;28;20427;-43
2022/05/15 13:10:13;;;;;;;8.20;4.33;;;25.30;75.80;;;;;;5072721;28;20438;-43
2022/05/15 13:13:04;;;;;;;7.97;3.87;;;25.20;72.40;;;;;;5086454;28;20184;-44
2022/05/15 13:15:32;;;;;;;6.33;3.73;;;25.20;73.10;;;;;;5070694;28;20475;-43
2022/05/15 13:18:04;;;;;;;4.80;4.07;;;25.20;73.20;;;;;;5073994;28;20898;-43
2022/05/15 13:20:30;;;;;;;4.60;3.53;;;25.30;77.90;;;;;;5078263;28;20787;-43
2022/05/15 13:22:59;;;;;;;5.30;3.60;;;25.30;75.00;;;;;;5075256;28;20431;-43